createdAt,value
2019-05-29T00:00:54.941Z,59.08
2019-05-29T00:03:26.550Z,57.74
2019-05-29T00:06:00.057Z,58.85
2019-05-29T00:08:31.684Z,60.20
2019-05-29T00:11:03.455Z,61.47
2019-05-29T00:13:35.183Z,62.27
2019-05-29T00:16:06.915Z,63.68
2019-05-29T00:18:38.644Z,62.35
2019-05-29T00:21:11.677Z,60.48
2019-05-29T00:23:44.084Z,57.17
2019-05-29T00:26:16.608Z,56.75
2019-05-29T00:28:49.595Z,57.66
2019-05-29T00:31:21.432Z,58.57
2019-05-29T00:33:53.238Z,59.43
2019-05-29T00:36:24.962Z,60.95
2019-05-29T00:38:56.963Z,61.00
2019-05-29T00:41:28.761Z,62.02
2019-05-29T00:44:00.592Z,63.22
2019-05-29T00:46:33.610Z,60.57
2019-05-29T00:49:05.335Z,57.36
2019-05-29T00:51:37.059Z,57.74
2019-05-29T00:54:08.792Z,59.32
2019-05-29T00:56:40.621Z,60.07
2019-05-29T00:59:13.047Z,61.33
2019-05-29T01:01:44.721Z,62.03
2019-05-29T01:04:16.460Z,63.73
2019-05-29T01:06:48.288Z,61.43
2019-05-29T01:09:20.752Z,59.41
2019-05-29T01:11:53.874Z,57.94
2019-05-29T01:14:25.699Z,57.60
2019-05-29T01:16:57.426Z,58.66
2019-05-29T01:19:29.153Z,59.77
2019-05-29T01:22:02.051Z,61.05
2019-05-29T01:24:33.871Z,62.57
2019-05-29T01:27:05.695Z,63.57
2019-05-29T01:29:37.422Z,61.24
2019-05-29T01:32:09.319Z,58.62
2019-05-29T01:34:40.951Z,55.98
2019-05-29T01:37:13.899Z,57.32
2019-05-29T01:39:46.328Z,58.37
2019-05-29T01:42:19.383Z,59.09
2019-05-29T01:45:06.374Z,60.35
2019-05-29T01:47:24.390Z,60.97
2019-05-29T01:49:56.282Z,62.90
2019-05-29T01:52:28.133Z,64.81
2019-05-29T01:55:00.201Z,61.72
2019-05-29T01:57:33.169Z,59.98
2019-05-29T02:00:08.301Z,57.30
2019-05-29T02:02:40.122Z,57.36
2019-05-29T02:05:12.046Z,58.84
2019-05-29T02:07:43.654Z,59.53
2019-05-29T02:10:18.373Z,60.60
2019-05-29T02:12:50.262Z,61.91
2019-05-29T02:15:29.962Z,62.35
2019-05-29T02:17:55.307Z,64.70
2019-05-29T02:20:27.250Z,62.29
2019-05-29T02:22:59.120Z,60.54
2019-05-29T02:25:30.845Z,56.94
2019-05-29T02:28:02.684Z,56.50
2019-05-29T02:30:34.405Z,57.04
2019-05-29T02:33:08.901Z,58.39
2019-05-29T02:35:40.620Z,58.91
2019-05-29T02:38:13.348Z,59.89
2019-05-29T02:40:46.737Z,60.63
2019-05-29T02:43:19.235Z,62.31
2019-05-29T02:45:54.718Z,64.97
2019-05-29T02:48:27.305Z,63.20
2019-05-29T02:50:59.523Z,60.34
2019-05-29T02:53:31.239Z,58.26
2019-05-29T02:56:03.063Z,54.76
2019-05-29T02:58:34.788Z,55.64
2019-05-29T03:01:06.510Z,56.95
2019-05-29T03:03:40.134Z,58.56
2019-05-29T03:06:12.199Z,59.41
2019-05-29T03:08:44.096Z,60.77
2019-05-29T03:11:15.728Z,61.75
2019-05-29T03:13:47.913Z,62.35
2019-05-29T03:16:21.166Z,64.97
2019-05-29T03:18:52.898Z,62.96
2019-05-29T03:21:26.051Z,60.70
2019-05-29T03:23:57.825Z,56.00
2019-05-29T03:26:31.437Z,56.05
2019-05-29T03:29:04.703Z,57.32
2019-05-29T03:31:43.551Z,58.11
2019-05-29T03:34:10.161Z,59.25
2019-05-29T03:36:47.145Z,61.08
2019-05-29T03:39:15.408Z,61.85
2019-05-29T03:41:47.137Z,62.16
2019-05-29T03:44:19.695Z,63.99
2019-05-29T03:46:51.421Z,64.10
2019-05-29T03:49:24.470Z,57.97
2019-05-29T03:51:56.197Z,56.52
2019-05-29T03:54:28.835Z,50.92
2019-05-29T03:57:01.247Z,48.58
2019-05-29T03:59:37.490Z,46.78
2019-05-29T04:02:09.388Z,46.60
2019-05-29T04:04:41.116Z,46.43
2019-05-29T04:07:14.384Z,48.38
2019-05-29T04:09:47.430Z,47.87
2019-05-29T04:12:20.766Z,49.30
2019-05-29T04:14:54.603Z,49.91
2019-05-29T04:17:29.593Z,51.27
2019-05-29T04:20:01.523Z,51.71
2019-05-29T04:22:41.053Z,53.00
2019-05-29T04:25:14.091Z,53.67
2019-05-29T04:27:50.407Z,54.50
2019-05-29T04:30:22.478Z,55.20
2019-05-29T04:32:54.144Z,56.36
2019-05-29T04:35:25.880Z,56.54
2019-05-29T04:37:58.586Z,57.36
2019-05-29T04:40:30.588Z,57.91
2019-05-29T04:43:02.715Z,59.06
2019-05-29T04:45:37.226Z,59.73
2019-05-29T04:48:08.074Z,60.26
2019-05-29T04:50:40.594Z,60.33
2019-05-29T04:53:12.990Z,61.83
2019-05-29T04:55:44.886Z,61.91
2019-05-29T04:58:16.617Z,62.34
2019-05-29T05:00:58.634Z,63.20
2019-05-29T05:03:21.658Z,61.92
2019-05-29T05:05:53.399Z,59.50
2019-05-29T05:08:25.251Z,56.01
2019-05-29T05:10:56.977Z,55.94
2019-05-29T05:13:29.461Z,56.48
2019-05-29T05:16:03.270Z,56.57
2019-05-29T05:18:35.859Z,56.77
2019-05-29T05:21:07.921Z,57.01
2019-05-29T05:23:40.502Z,56.95
2019-05-29T05:26:12.733Z,57.32
2019-05-29T05:28:46.048Z,56.82
2019-05-29T05:31:18.009Z,54.79
2019-05-29T05:33:49.861Z,55.43
2019-05-29T05:36:21.856Z,54.98
2019-05-29T05:38:53.695Z,55.13
2019-05-29T05:41:25.425Z,54.43
2019-05-29T05:43:57.150Z,55.62
2019-05-29T05:46:28.895Z,53.77
2019-05-29T05:49:00.732Z,54.17
2019-05-29T05:51:33.459Z,52.99
2019-05-29T05:54:06.144Z,49.76
2019-05-29T05:56:37.792Z,49.29
2019-05-29T05:59:09.644Z,45.92
2019-05-29T06:01:42.200Z,44.63
2019-05-29T06:04:14.031Z,38.95
2019-05-29T06:06:46.127Z,40.78
2019-05-29T06:09:19.502Z,41.05
2019-05-29T06:11:51.136Z,38.66
2019-05-29T06:14:22.855Z,34.04
2019-05-29T06:16:54.584Z,33.24
2019-05-29T06:19:26.433Z,31.14
2019-05-29T06:21:58.160Z,31.98
2019-05-29T06:24:30.878Z,28.50
2019-05-29T06:27:02.619Z,27.80
2019-05-29T06:29:35.222Z,28.50
2019-05-29T06:32:07.381Z,28.79
2019-05-29T06:34:39.611Z,28.18
2019-05-29T06:37:12.667Z,27.56
2019-05-29T06:39:44.503Z,26.96
2019-05-29T06:42:16.259Z,27.70
2019-05-29T06:44:49.823Z,25.42
2019-05-29T06:47:21.602Z,25.52
2019-05-29T06:49:53.336Z,24.84
2019-05-29T06:52:25.066Z,26.29
2019-05-29T06:54:57.684Z,25.58
2019-05-29T06:57:29.515Z,25.00
2019-05-29T07:00:01.278Z,24.64
2019-05-29T07:02:34.300Z,24.41
2019-05-29T07:05:08.399Z,25.02
2019-05-29T07:07:40.428Z,22.83
2019-05-29T07:10:12.975Z,22.03
2019-05-29T07:12:44.755Z,23.46
2019-05-29T07:15:17.316Z,22.22
2019-05-29T07:17:48.944Z,21.25
2019-05-29T07:20:20.965Z,22.49
2019-05-29T07:22:52.666Z,22.28
2019-05-29T07:25:24.480Z,22.72
2019-05-29T07:27:56.531Z,23.85
2019-05-29T07:30:28.762Z,22.90
2019-05-29T07:33:00.590Z,23.55
2019-05-29T07:35:32.352Z,24.52
2019-05-29T07:38:04.339Z,22.61
2019-05-29T07:40:36.179Z,21.81
2019-05-29T07:43:07.900Z,23.31
2019-05-29T07:45:40.574Z,23.27
2019-05-29T07:48:12.982Z,23.17
2019-05-29T07:50:46.070Z,23.27
2019-05-29T07:53:19.314Z,22.40
2019-05-29T07:55:51.055Z,23.74
2019-05-29T07:58:22.824Z,21.67
2019-05-29T08:01:12.199Z,22.43
2019-05-29T08:03:28.181Z,22.55
2019-05-29T08:05:59.931Z,22.23
2019-05-29T08:08:31.706Z,22.40
2019-05-29T08:11:03.474Z,21.99
2019-05-29T08:13:35.221Z,22.58
2019-05-29T08:16:06.954Z,22.73
2019-05-29T08:18:41.132Z,23.69
2019-05-29T08:21:12.573Z,25.45
2019-05-29T08:23:44.433Z,25.39
2019-05-29T08:26:16.156Z,25.76
2019-05-29T08:28:48.901Z,26.55
2019-05-29T08:31:21.245Z,27.34
2019-05-29T08:33:53.000Z,27.66
2019-05-29T08:36:24.726Z,29.12
2019-05-29T08:38:56.496Z,28.93
2019-05-29T08:41:28.222Z,29.51
2019-05-29T08:43:59.986Z,31.05
2019-05-29T08:46:33.511Z,30.98
2019-05-29T08:49:05.039Z,32.63
2019-05-29T08:51:37.761Z,33.13
2019-05-29T08:54:23.647Z,32.77
2019-05-29T08:56:44.263Z,32.82
2019-05-29T08:59:16.312Z,32.53
2019-05-29T09:01:50.400Z,32.54
2019-05-29T09:04:21.753Z,34.29
2019-05-29T09:06:53.651Z,33.75
2019-05-29T09:09:26.743Z,35.21
2019-05-29T09:11:58.572Z,34.76
2019-05-29T09:14:30.483Z,34.60
2019-05-29T09:17:02.338Z,35.03
2019-05-29T09:19:34.154Z,35.50
2019-05-29T09:22:05.886Z,35.80
2019-05-29T09:24:37.625Z,34.76
2019-05-29T09:27:09.360Z,35.06
2019-05-29T09:29:41.188Z,35.74
2019-05-29T09:32:13.683Z,36.01
2019-05-29T09:34:47.705Z,36.17
2019-05-29T09:37:20.519Z,36.36
2019-05-29T09:39:52.465Z,36.14
2019-05-29T09:42:25.345Z,36.30
2019-05-29T09:44:57.519Z,36.44
2019-05-29T09:47:29.347Z,38.69
2019-05-29T09:50:01.391Z,37.34
2019-05-29T09:52:34.629Z,36.33
2019-05-29T09:55:08.105Z,35.08
2019-05-29T09:57:39.741Z,35.77
2019-05-29T10:00:12.709Z,34.49
2019-05-29T10:02:44.534Z,35.44
2019-05-29T10:05:17.548Z,36.05
2019-05-29T10:07:49.180Z,36.27
2019-05-29T10:10:21.458Z,36.11
2019-05-29T10:12:53.510Z,36.33
2019-05-29T10:15:26.888Z,36.01
2019-05-29T10:18:01.097Z,35.56
2019-05-29T10:20:33.121Z,36.47
2019-05-29T10:23:05.321Z,35.55
2019-05-29T10:25:37.094Z,35.75
2019-05-29T10:28:08.876Z,36.19
2019-05-29T10:30:42.257Z,37.17
2019-05-29T10:33:14.516Z,38.70
2019-05-29T10:35:49.049Z,39.11
2019-05-29T10:38:19.876Z,40.19
2019-05-29T10:41:00.542Z,39.02
2019-05-29T10:43:34.044Z,38.47
2019-05-29T10:45:58.829Z,40.36
2019-05-29T10:48:30.598Z,40.32
2019-05-29T10:51:02.525Z,39.63
2019-05-29T10:53:34.350Z,40.25
2019-05-29T10:56:08.260Z,38.34
2019-05-29T10:58:49.735Z,39.19
2019-05-29T11:01:13.624Z,39.27
2019-05-29T11:03:45.582Z,41.59
2019-05-29T11:06:17.478Z,41.96
2019-05-29T11:08:50.015Z,41.32
2019-05-29T11:11:22.107Z,40.84
2019-05-29T11:13:55.177Z,40.88
2019-05-29T11:16:27.259Z,40.77
2019-05-29T11:18:59.006Z,39.21
2019-05-29T11:21:30.988Z,40.12
2019-05-29T11:24:02.850Z,40.50
2019-05-29T11:26:34.591Z,40.85
2019-05-29T11:29:06.565Z,40.90
2019-05-29T11:31:38.398Z,42.31
2019-05-29T11:34:10.241Z,40.10
2019-05-29T11:36:41.975Z,38.58
2019-05-29T11:39:13.755Z,39.00
2019-05-29T11:41:45.503Z,37.80
2019-05-29T11:44:17.349Z,39.32
2019-05-29T11:46:50.166Z,40.41
2019-05-29T11:49:21.995Z,39.44
2019-05-29T11:51:55.356Z,39.67
2019-05-29T11:54:27.064Z,38.39
2019-05-29T14:00:17.085Z,37.25
2019-05-29T14:02:37.693Z,37.98
2019-05-29T14:05:10.726Z,38.08
2019-05-29T14:07:42.374Z,37.85
2019-05-29T14:10:15.992Z,37.46
2019-05-29T14:12:48.629Z,37.69
2019-05-29T14:15:21.631Z,37.94
2019-05-29T14:17:53.405Z,37.60
2019-05-29T14:20:26.263Z,37.45
2019-05-29T14:22:58.457Z,38.31
2019-05-29T14:25:30.519Z,37.71
2019-05-29T14:28:02.724Z,38.31
2019-05-29T14:30:34.648Z,37.90
2019-05-29T14:33:06.838Z,37.38
2019-05-29T14:35:40.011Z,36.99
2019-05-29T14:38:14.936Z,36.98
2019-05-29T14:40:45.468Z,36.95
2019-05-29T14:43:17.443Z,37.51
2019-05-29T14:45:49.561Z,36.71
2019-05-29T14:48:21.296Z,37.53
2019-05-29T14:50:54.573Z,39.36
2019-05-29T14:53:26.329Z,38.46
2019-05-29T14:55:58.070Z,38.75
2019-05-29T14:58:30.874Z,38.53
2019-05-29T15:01:03.111Z,37.95
2019-05-29T15:03:35.201Z,38.77
2019-05-29T15:06:07.615Z,38.14
2019-05-29T15:08:39.535Z,38.50
2019-05-29T15:11:12.081Z,37.87
2019-05-29T15:13:43.802Z,38.08
2019-05-29T15:16:15.457Z,39.07
2019-05-29T15:18:47.188Z,39.39
2019-05-29T15:21:18.942Z,39.27
2019-05-29T15:23:54.546Z,39.44
2019-05-29T15:26:27.097Z,39.34
2019-05-29T15:29:01.125Z,39.35
2019-05-29T15:31:35.760Z,39.55
2019-05-29T15:34:08.851Z,39.60
2019-05-29T15:36:41.682Z,39.51
2019-05-29T15:39:14.679Z,39.43
2019-05-29T15:41:47.881Z,39.53
2019-05-29T15:44:22.537Z,39.17
2019-05-29T15:46:58.428Z,38.81
2019-05-29T15:49:31.360Z,38.42
2019-05-29T15:52:03.182Z,38.54
2019-05-29T15:54:34.946Z,38.88
2019-05-29T15:57:06.955Z,38.30
2019-05-29T15:59:39.262Z,38.30
2019-05-29T16:02:11.473Z,38.89
2019-05-29T16:04:43.556Z,38.33
2019-05-29T16:07:16.102Z,39.34
2019-05-29T16:09:48.482Z,39.23
2019-05-29T16:12:20.306Z,38.54
2019-05-29T16:14:52.423Z,38.68
2019-05-29T16:17:24.719Z,38.79
2019-05-29T16:19:56.452Z,38.57
2019-05-29T16:22:28.328Z,39.08
2019-05-29T16:25:01.172Z,40.14
2019-05-29T16:27:33.522Z,39.14
2019-05-29T16:30:09.147Z,39.59
2019-05-29T16:32:42.310Z,39.76
2019-05-29T16:35:19.345Z,40.42
2019-05-29T16:37:52.237Z,40.13
2019-05-29T16:40:25.422Z,41.16
2019-05-29T16:42:58.392Z,41.22
2019-05-29T16:45:41.701Z,41.87
2019-05-29T16:48:16.475Z,41.40
2019-05-29T16:50:50.016Z,40.88
2019-05-29T16:53:23.321Z,40.70
2019-05-29T16:55:55.488Z,40.45
2019-05-29T16:58:27.179Z,42.48
2019-05-29T17:00:59.041Z,42.23
2019-05-29T17:03:30.807Z,42.39
2019-05-29T17:06:03.820Z,42.56
2019-05-29T17:08:35.723Z,43.02
2019-05-29T17:11:09.964Z,43.29
2019-05-29T17:13:41.678Z,43.52
2019-05-29T17:16:14.427Z,44.10
2019-05-29T17:18:47.930Z,43.75
2019-05-29T17:21:22.737Z,43.38
2019-05-29T17:23:54.511Z,43.45
2019-05-29T17:26:26.830Z,44.09
2019-05-29T17:28:59.659Z,43.66
2019-05-29T17:31:31.537Z,43.68
2019-05-29T17:34:04.475Z,44.40
2019-05-29T17:36:38.089Z,44.20
2019-05-29T17:39:10.988Z,44.73
2019-05-29T17:41:42.688Z,44.69
2019-05-29T17:44:15.441Z,46.63
2019-05-29T17:46:47.418Z,46.56
2019-05-29T17:49:28.968Z,46.72
2019-05-29T17:51:54.509Z,46.85
2019-05-29T17:54:27.796Z,47.74
2019-05-29T17:57:01.553Z,46.92
2019-05-29T17:59:34.288Z,46.79
2019-05-29T18:02:06.243Z,47.19
2019-05-29T18:04:38.223Z,49.14
2019-05-29T18:07:10.279Z,48.56
2019-05-29T18:09:43.679Z,49.78
2019-05-29T18:12:17.011Z,50.33
2019-05-29T18:14:53.233Z,50.71
2019-05-29T18:17:27.821Z,51.57
2019-05-29T18:20:01.390Z,51.48
2019-05-29T18:22:36.470Z,52.28
2019-05-29T18:25:11.636Z,52.62
2019-05-29T18:27:44.944Z,53.32
2019-05-29T18:30:18.441Z,55.19
2019-05-29T18:32:50.675Z,54.03
2019-05-29T18:35:22.921Z,55.79
2019-05-29T18:37:54.932Z,56.71
2019-05-29T18:40:26.880Z,56.03
2019-05-29T18:42:59.074Z,56.33
2019-05-29T18:45:31.069Z,58.07
2019-05-29T18:48:04.402Z,60.20
2019-05-29T18:50:36.628Z,60.63
2019-05-29T18:53:09.979Z,59.70
2019-05-29T18:55:42.953Z,59.21
2019-05-29T18:58:16.175Z,60.78
2019-05-29T19:00:48.770Z,61.50
2019-05-29T19:03:21.371Z,62.58
2019-05-29T19:05:55.229Z,64.77
2019-05-29T19:08:27.766Z,63.18
2019-05-29T19:10:59.533Z,60.35
2019-05-29T19:13:32.458Z,57.65
2019-05-29T19:16:04.311Z,54.59
2019-05-29T19:18:36.084Z,54.19
2019-05-29T19:21:12.460Z,55.36
2019-05-29T19:23:45.343Z,54.44
2019-05-29T19:26:19.589Z,55.75
2019-05-29T19:28:53.374Z,55.25
2019-05-29T19:31:27.058Z,55.54
2019-05-29T19:34:01.589Z,56.59
2019-05-29T19:36:35.266Z,56.11
2019-05-29T19:39:09.947Z,55.93
2019-05-29T19:41:41.807Z,55.87
2019-05-29T19:44:13.800Z,56.36
2019-05-29T19:46:53.644Z,57.98
2019-05-29T19:49:20.043Z,58.57
2019-05-29T19:51:52.353Z,60.10
2019-05-29T19:54:25.323Z,60.40
2019-05-29T19:56:57.576Z,60.63
2019-05-29T19:59:29.977Z,61.06
2019-05-29T20:02:03.640Z,63.26
2019-05-29T20:04:38.037Z,67.01
2019-05-29T20:07:09.672Z,65.38
2019-05-29T20:09:41.638Z,62.32
2019-05-29T20:12:16.549Z,59.26
2019-05-29T20:14:48.976Z,53.51
2019-05-29T20:17:22.544Z,52.17
2019-05-29T20:19:54.608Z,52.37
2019-05-29T20:22:28.569Z,52.86
2019-05-29T20:25:01.571Z,53.17
2019-05-29T20:27:34.223Z,53.88
2019-05-29T20:30:08.444Z,54.38
2019-05-29T20:32:40.259Z,54.61
2019-05-29T20:35:18.017Z,54.95
2019-05-29T20:37:49.689Z,55.38
2019-05-29T20:40:25.052Z,55.79
2019-05-29T20:42:56.896Z,55.84
2019-05-29T20:45:29.540Z,56.29
2019-05-29T20:48:02.756Z,56.80
2019-05-29T20:50:37.702Z,57.18
2019-05-29T20:53:11.192Z,57.05
2019-05-29T20:55:43.016Z,57.16
2019-05-29T20:58:24.417Z,57.49
2019-05-29T21:00:56.151Z,57.50
2019-05-29T21:03:27.946Z,57.65
2019-05-29T21:06:04.662Z,57.58
2019-05-29T21:08:38.956Z,57.49
2019-05-29T21:11:12.834Z,57.68
2019-05-29T21:13:45.275Z,57.74
2019-05-29T21:16:17.102Z,57.52
2019-05-29T21:18:54.432Z,57.76
2019-05-29T21:21:30.217Z,57.77
2019-05-29T21:24:02.137Z,57.92
2019-05-29T21:26:34.983Z,57.86
2019-05-29T21:29:16.686Z,58.00
2019-05-29T21:31:49.562Z,58.11
2019-05-29T21:34:23.599Z,58.01
2019-05-29T21:36:55.421Z,58.47
2019-05-29T21:39:27.132Z,58.45
2019-05-29T21:41:58.956Z,58.40
2019-05-29T21:44:30.681Z,58.84
2019-05-29T21:47:02.399Z,58.78
2019-05-29T21:49:34.222Z,59.87
2019-05-29T21:52:06.122Z,59.16
2019-05-29T21:54:37.740Z,59.20
2019-05-29T21:57:09.567Z,59.70
2019-05-29T21:59:41.647Z,59.60
2019-05-29T22:02:13.578Z,59.76
2019-05-29T22:04:46.467Z,59.83
2019-05-29T22:07:19.023Z,60.30
2019-05-29T22:09:50.740Z,60.29
2019-05-29T22:12:22.451Z,61.14
2019-05-29T22:14:55.162Z,61.06
2019-05-29T22:17:26.969Z,61.13
2019-05-29T22:19:59.042Z,61.64
2019-05-29T22:22:31.136Z,62.41
2019-05-29T22:25:02.807Z,68.68
2019-05-29T22:27:36.010Z,63.64
2019-05-29T22:30:09.353Z,58.87
2019-05-29T22:32:40.970Z,54.23
2019-05-29T22:35:13.408Z,54.69
2019-05-29T22:37:45.327Z,55.14
2019-05-29T22:40:17.709Z,56.02
2019-05-29T22:42:49.413Z,56.87
2019-05-29T22:45:21.515Z,58.08
2019-05-29T22:47:53.864Z,59.25
2019-05-29T22:50:25.913Z,59.63
2019-05-29T22:52:57.860Z,60.45
2019-05-29T22:55:30.034Z,61.86
2019-05-29T22:58:02.205Z,62.32
2019-05-29T23:00:36.585Z,66.20
2019-05-29T23:03:08.409Z,65.45
2019-05-29T23:05:40.160Z,62.72
2019-05-29T23:08:11.875Z,60.24
2019-05-29T23:10:43.723Z,57.61
2019-05-29T23:13:15.444Z,54.99
2019-05-29T23:15:47.188Z,54.32
2019-05-29T23:18:20.073Z,54.89
2019-05-29T23:20:52.408Z,55.54
2019-05-29T23:23:24.625Z,57.52
2019-05-29T23:25:56.560Z,57.95
2019-05-29T23:28:28.806Z,58.68
2019-05-29T23:31:01.028Z,59.07
2019-05-29T23:33:33.226Z,60.24
2019-05-29T23:36:05.230Z,61.16
2019-05-29T23:38:37.046Z,60.77
2019-05-29T23:41:08.768Z,61.43
2019-05-29T23:43:40.493Z,62.88
2019-05-29T23:46:12.319Z,69.27
2019-05-29T23:48:44.038Z,65.49
2019-05-29T23:51:15.777Z,62.50
2019-05-29T23:53:47.652Z,58.81
2019-05-29T23:56:19.314Z,55.07
2019-05-29T23:58:51.036Z,54.95
